Time;durP1;ratioP1;P1;durP2;ratioP2;P2;SDS_P1;SDS_P2;PMS_P1;PMS_P2;Temp;Humidity;BMP_temperature;BMP_pressure;BME280_temperature;BME280_humidity;BME280_pressure;Samples;Min_cycle;Max_cycle;Signal;HPM_P1;HPM_P2
2022/08/26 00:00:44;;;;;;;16.13;3.70;;;;;;;-145.18;100.00;46636.94;5012686;28;20117;-72
2022/08/26 00:03:11;;;;;;;13.43;3.40;;;;;;;-145.18;100.00;46636.94;5012078;28;20050;-72
2022/08/26 00:05:37;;;;;;;9.87;2.40;;;;;;;-145.18;100.00;46638.91;5012637;28;20058;-72
2022/08/26 00:08:02;;;;;;;11.83;3.43;;;;;;;-145.18;100.00;46640.88;5012189;28;20493;-72
2022/08/26 00:10:28;;;;;;;15.03;3.27;;;;;;;-145.18;100.00;46642.81;5012306;28;20030;-72
2022/08/26 00:12:53;;;;;;;9.07;2.87;;;;;;;-145.18;100.00;46640.88;5012125;28;20049;-72
2022/08/26 00:15:20;;;;;;;9.73;2.80;;;;;;;-145.18;100.00;46638.91;5012262;28;20430;-72
2022/08/26 00:17:48;;;;;;;6.77;2.47;;;;;;;-145.18;100.00;46638.91;5012419;28;20040;-72
2022/08/26 00:20:17;;;;;;;9.07;2.97;;;;;;;-145.18;100.00;46638.91;5012244;28;20112;-72
2022/08/26 00:22:42;;;;;;;10.90;2.80;;;;;;;-145.18;100.00;46636.94;5011500;28;20116;-72
2022/08/26 00:25:09;;;;;;;7.23;2.97;;;;;;;-145.18;100.00;46640.88;5012087;28;20108;-72
2022/08/26 00:27:34;;;;;;;8.03;2.83;;;;;;;-145.18;100.00;46642.81;5012230;28;20058;-72
2022/08/26 00:30:03;;;;;;;14.57;4.13;;;;;;;-145.18;100.00;46640.88;5012153;28;20076;-72
2022/08/26 00:32:29;;;;;;;11.90;3.77;;;;;;;-145.18;100.00;46640.88;5011916;28;20406;-72
2022/08/26 00:34:54;;;;;;;13.07;3.80;;;;;;;-145.18;100.00;46640.88;5012344;28;20038;-72
2022/08/26 00:37:20;;;;;;;16.07;4.03;;;;;;;-145.18;100.00;46640.88;5011534;28;20558;-72
2022/08/26 00:39:45;;;;;;;16.27;4.13;;;;;;;-145.18;100.00;46642.81;5011974;28;20050;-72
2022/08/26 00:42:11;;;;;;;14.30;3.50;;;;;;;-145.18;100.00;46638.91;5011784;28;20041;-72
2022/08/26 00:44:36;;;;;;;12.80;3.63;;;;;;;-145.18;100.00;46640.88;5011893;28;20487;-72
2022/08/26 00:47:06;;;;;;;11.10;3.73;;;;;;;-145.18;100.00;46642.81;4993820;28;20541;-72
2022/08/26 00:49:40;;;;;;;12.37;4.30;;;;;;;-145.18;100.00;46650.63;5011217;28;20561;-72
2022/08/26 00:52:13;;;;;;;14.23;3.80;;;;;;;-145.18;100.00;46642.81;5011714;28;20060;-72
2022/08/26 00:54:45;;;;;;;12.67;3.53;;;;;;;-145.18;100.00;46640.88;5011618;28;20124;-72
2022/08/26 00:57:15;;;;;;;11.30;2.93;;;;;;;-145.18;100.00;46642.81;5011614;28;20551;-72
2022/08/26 00:59:42;;;;;;;10.70;3.07;;;;;;;-145.18;100.00;46640.88;5011441;28;20505;-72
2022/08/26 01:02:08;;;;;;;11.23;2.47;;;;;;;-145.18;100.00;46642.81;5011150;28;20073;-72
2022/08/26 01:04:37;;;;;;;5.87;2.07;;;;;;;-145.18;100.00;46642.81;5011501;28;20066;-72
2022/08/26 01:07:03;;;;;;;7.60;2.00;;;;;;;-145.18;100.00;46638.91;5011066;28;20037;-72
2022/08/26 01:09:30;;;;;;;9.00;2.03;;;;;;;-145.18;100.00;46642.81;4993845;28;20570;-72
2022/08/26 01:11:59;;;;;;;6.63;2.00;;;;;;;-145.18;100.00;46642.81;5011172;28;20042;-72
2022/08/26 01:14:29;;;;;;;6.70;2.00;;;;;;;-145.18;100.00;46652.59;5011326;28;20030;-72
2022/08/26 01:16:55;;;;;;;9.93;2.67;;;;;;;-145.18;100.00;46642.81;5011419;28;20034;-72
2022/08/26 01:19:27;;;;;;;9.03;2.83;;;;;;;-145.18;100.00;46642.81;5010925;28;20073;-72
2022/08/26 01:21:58;;;;;;;9.30;2.30;;;;;;;-145.18;100.00;46638.91;5011135;28;20483;-72
2022/08/26 01:24:27;;;;;;;8.83;2.27;;;;;;;-145.18;100.00;46642.81;5010848;28;20034;-72
2022/08/26 01:26:59;;;;;;;10.33;2.53;;;;;;;-145.18;100.00;46642.81;5010940;28;20402;-72
2022/08/26 01:29:25;;;;;;;8.57;2.93;;;;;;;-145.18;100.00;46640.88;5011062;28;20038;-72
2022/08/26 01:31:54;;;;;;;9.63;2.43;;;;;;;-145.18;100.00;46640.88;5011093;28;20117;-72
2022/08/26 01:34:31;;;;;;;13.70;2.57;;;;;;;-145.18;100.00;46638.91;5010922;28;20540;-72
2022/08/26 01:37:22;;;;;;;9.03;2.73;;;;;;;-145.18;100.00;46642.81;5011024;28;20033;-72
2022/08/26 01:39:50;;;;;;;12.13;2.30;;;;;;;-145.18;100.00;46642.81;5011015;28;20022;-72
2022/08/26 01:42:18;;;;;;;6.10;2.67;;;;;;;-145.18;100.00;46642.81;5010658;28;20042;-72
2022/08/26 01:44:56;;;;;;;11.13;2.67;;;;;;;-145.18;100.00;46652.59;5010602;28;20029;-72
2022/08/26 01:47:24;;;;;;;6.70;2.20;;;;;;;-145.18;100.00;46650.63;5010367;28;20064;-72
2022/08/26 01:49:53;;;;;;;8.20;2.60;;;;;;;-145.18;100.00;46642.81;5010456;28;20059;-72
2022/08/26 01:52:22;;;;;;;11.27;2.10;;;;;;;-145.18;100.00;46640.88;5010486;28;20040;-72
2022/08/26 01:54:49;;;;;;;12.83;2.73;;;;;;;-145.18;100.00;46640.88;5010806;28;20026;-72
2022/08/26 01:57:16;;;;;;;7.90;2.40;;;;;;;-145.18;100.00;46640.88;5010336;28;20033;-73
2022/08/26 01:59:41;;;;;;;8.43;3.30;;;;;;;-145.18;100.00;46640.88;5010495;28;20044;-72
2022/08/26 02:04:57;;;;;;;10.87;3.63;;;;;;;-145.18;100.00;46642.81;5039844;28;20091;-74
2022/08/26 02:07:23;;;;;;;14.93;3.43;;;;;;;-145.18;100.00;46642.81;5048758;28;20102;-74
2022/08/26 02:09:49;;;;;;;10.33;3.30;;;;;;;-145.18;100.00;46642.81;5031649;28;20493;-74
2022/08/26 02:12:17;;;;;;;11.63;3.57;;;;;;;-145.18;100.00;46640.88;5049136;28;20052;-74
2022/08/26 02:14:49;;;;;;;5.23;2.00;;;;;;;-145.18;100.00;46640.88;5049562;28;20044;-74
2022/08/26 02:17:16;;;;;;;11.83;3.10;;;;;;;-145.18;100.00;46640.88;5049966;28;20078;-74
2022/08/26 02:19:47;;;;;;;12.90;3.30;;;;;;;-145.18;100.00;46642.81;5049883;28;20025;-74
2022/08/26 02:22:17;;;;;;;10.03;2.57;;;;;;;-145.18;100.00;46650.63;5049458;28;20459;-73
2022/08/26 02:25:09;;;;;;;9.83;3.10;;;;;;;-145.18;100.00;46636.94;5050008;28;20032;-72
2022/08/26 02:27:34;;;;;;;12.67;2.73;;;;;;;-145.18;100.00;46642.81;5049653;28;20024;-72
2022/08/26 02:30:15;;;;;;;18.40;2.90;;;;;;;-145.18;100.00;46638.91;5050260;28;20389;-72
2022/08/26 02:32:41;;;;;;;15.53;2.40;;;;;;;-145.18;100.00;46640.88;5049254;28;20029;-72
2022/08/26 02:35:09;;;;;;;11.33;2.53;;;;;;;-145.18;100.00;46652.59;5049460;28;20317;-72
2022/08/26 02:37:34;;;;;;;12.87;2.43;;;;;;;-145.18;100.00;46642.81;5049675;28;20039;-72
2022/08/26 02:40:00;;;;;;;10.33;2.20;;;;;;;-145.18;100.00;46650.63;5049977;28;20489;-72
2022/08/26 02:42:25;;;;;;;8.03;1.97;;;;;;;-145.18;100.00;46640.88;5049549;28;20045;-72
2022/08/26 02:44:51;;;;;;;9.37;2.10;;;;;;;-145.18;100.00;46642.81;5049309;28;20884;-72
2022/08/26 02:47:16;;;;;;;13.53;1.73;;;;;;;-145.18;100.00;46650.63;5049146;28;20037;-72
2022/08/26 02:49:43;;;;;;;10.20;2.57;;;;;;;-145.18;100.00;46642.81;5031856;28;20056;-72
2022/08/26 02:52:09;;;;;;;9.97;3.00;;;;;;;-145.18;100.00;46638.91;5049517;28;20033;-72
2022/08/26 02:54:34;;;;;;;12.10;2.30;;;;;;;-145.18;100.00;46636.94;5049740;28;20037;-72
2022/08/26 02:57:00;;;;;;;11.50;2.60;;;;;;;-145.18;100.00;46642.81;5049326;28;20566;-72
2022/08/26 02:59:25;;;;;;;9.70;2.37;;;;;;;-145.18;100.00;46636.94;5047223;28;20029;-72
2022/08/26 03:01:51;;;;;;;11.83;3.00;;;;;;;-145.18;100.00;46640.88;5055566;28;20040;-73
2022/08/26 03:04:16;;;;;;;10.57;2.77;;;;;;;-145.18;100.00;46638.91;5069364;28;20051;-73
2022/08/26 03:06:42;;;;;;;13.70;3.63;;;;;;;-145.18;100.00;46640.88;5068861;28;20037;-72
2022/08/26 03:09:07;;;;;;;7.13;2.43;;;;;;;-145.18;100.00;46636.94;5069500;28;20032;-73
2022/08/26 03:11:34;;;;;;;10.30;2.27;;;;;;;-145.18;100.00;46636.94;5071439;28;20166;-72
2022/08/26 03:14:00;;;;;;;11.50;2.30;;;;;;;-145.18;100.00;46638.91;5073179;28;20028;-73
2022/08/26 03:16:25;;;;;;;13.27;2.50;;;;;;;-145.18;100.00;46633.06;5073448;28;20032;-72
2022/08/26 03:18:51;;;;;;;9.33;2.37;;;;;;;-145.18;100.00;46636.94;5072827;28;20036;-72
2022/08/26 03:21:17;;;;;;;10.27;2.40;;;;;;;-145.18;100.00;46636.94;5055324;28;20042;-72
2022/08/26 03:23:43;;;;;;;8.57;2.13;;;;;;;-145.18;100.00;46636.94;5072876;28;20036;-72
2022/08/26 03:26:11;;;;;;;11.63;2.07;;;;;;;-145.18;100.00;46633.06;5073265;28;20534;-73
2022/08/26 03:30:38;;;;;;;12.80;2.53;;;;;;;-145.18;100.00;46633.06;5072673;28;20116;-73
2022/08/26 03:31:22;;;;;;;;;;;;;;;-145.18;100.00;46636.94;5073837;28;20072;-73
2022/08/26 03:33:47;;;;;;;7.00;1.70;;;;;;;-145.18;100.00;46636.94;5072522;28;19967;-73
2022/08/26 03:36:14;;;;;;;8.57;2.50;;;;;;;-145.18;100.00;46636.94;5073354;28;20335;-73
2022/08/26 03:38:39;;;;;;;6.77;1.73;;;;;;;-145.18;100.00;46638.91;5072455;28;20033;-73
2022/08/26 03:41:04;;;;;;;13.37;2.70;;;;;;;-145.18;100.00;46638.91;5073164;28;20044;-72
2022/08/26 03:43:30;;;;;;;8.40;2.43;;;;;;;-145.18;100.00;46636.94;5072846;28;20033;-73
2022/08/26 03:45:55;;;;;;;11.23;2.00;;;;;;;-145.18;100.00;46633.06;5055178;28;20032;-72
2022/08/26 03:48:20;;;;;;;11.23;2.03;;;;;;;-145.18;100.00;46635.00;5072703;28;20071;-72
2022/08/26 03:50:46;;;;;;;11.20;2.00;;;;;;;-145.18;100.00;46636.94;5072782;28;20117;-72
2022/08/26 03:53:11;;;;;;;10.97;1.90;;;;;;;-145.18;100.00;46636.94;5072522;28;20040;-72
2022/08/26 03:55:37;;;;;;;10.23;1.70;;;;;;;-145.18;100.00;46635.00;5072633;28;20045;-72
2022/08/26 03:58:02;;;;;;;16.77;2.07;;;;;;;-145.18;100.00;46640.88;5070819;28;20123;-72
2022/08/26 04:00:28;;;;;;;10.60;2.47;;;;;;;-145.18;100.00;46635.00;5072618;28;20198;-73
2022/08/26 04:02:54;;;;;;;10.73;1.97;;;;;;;-145.18;100.00;46636.94;5071190;28;20044;-73
2022/08/26 04:05:21;;;;;;;10.27;1.77;;;;;;;-145.18;100.00;46633.06;5072683;28;20474;-72
2022/08/26 04:07:46;;;;;;;14.93;2.20;;;;;;;-145.18;100.00;46635.00;5072004;28;20085;-72
2022/08/26 04:10:15;;;;;;;12.40;1.93;;;;;;;-145.18;100.00;46636.94;5072319;28;20029;-72
2022/08/26 04:12:41;;;;;;;15.07;2.80;;;;;;;-145.18;100.00;46638.91;5072064;28;20024;-72
2022/08/26 04:15:11;;;;;;;9.90;1.50;;;;;;;-145.18;100.00;46636.94;5072111;28;20040;-72
2022/08/26 04:17:37;;;;;;;13.07;2.40;;;;;;;-145.18;100.00;46636.94;5071758;28;20484;-72
2022/08/26 04:20:05;;;;;;;6.70;1.87;;;;;;;-145.18;100.00;46638.91;5072457;28;20025;-73
2022/08/26 04:22:30;;;;;;;6.70;1.47;;;;;;;-145.18;100.00;46640.88;5070771;28;20127;-74
2022/08/26 04:24:56;;;;;;;10.43;1.83;;;;;;;-145.18;100.00;46636.94;5072107;28;20173;-72
2022/08/26 04:27:21;;;;;;;7.50;2.30;;;;;;;-145.18;100.00;46638.91;5072007;28;20028;-72
2022/08/26 04:29:46;;;;;;;8.77;1.40;;;;;;;-145.18;100.00;46636.94;5077015;28;20027;-73
2022/08/26 04:32:12;;;;;;;5.40;1.37;;;;;;;-145.18;100.00;46635.00;5080864;28;20064;-72
2022/08/26 04:34:38;;;;;;;9.00;1.90;;;;;;;-145.18;100.00;46638.91;5081115;28;20133;-72
2022/08/26 04:37:04;;;;;;;5.73;1.57;;;;;;;-145.18;100.00;46636.94;5082268;28;20086;-73
2022/08/26 04:39:30;;;;;;;5.60;1.67;;;;;;;-145.18;100.00;46638.91;5080156;28;20104;-72
2022/08/26 04:41:55;;;;;;;9.43;1.83;;;;;;;-145.18;100.00;46636.94;5081431;28;20898;-72
2022/08/26 04:44:24;;;;;;;15.53;2.50;;;;;;;-145.18;100.00;46636.94;5079503;28;20077;-72
2022/08/26 04:46:49;;;;;;;8.73;2.30;;;;;;;-145.18;100.00;46635.00;5081892;28;20491;-72
2022/08/26 04:49:15;;;;;;;10.10;2.53;;;;;;;-145.18;100.00;46640.88;5080509;28;20025;-72
2022/08/26 04:51:40;;;;;;;12.03;2.00;;;;;;;-145.18;100.00;46635.00;5065046;28;20034;-72
2022/08/26 04:54:06;;;;;;;8.00;1.60;;;;;;;-145.18;100.00;46636.94;5091520;28;20111;-72
2022/08/26 04:56:35;;;;;;;12.47;2.23;;;;;;;-145.18;100.00;46636.94;5084125;28;20103;-72
2022/08/26 04:59:02;;;;;;;7.10;1.60;;;;;;;-145.18;100.00;46638.91;5073358;28;20032;-72
2022/08/26 05:01:30;;;;;;;13.17;1.90;;;;;;;-145.18;100.00;46636.94;5069064;28;20492;-73
2022/08/26 05:03:57;;;;;;;9.13;1.50;;;;;;;-145.18;100.00;46638.91;5072575;28;20044;-73
2022/08/26 05:06:22;;;;;;;12.90;2.00;;;;;;;-145.18;100.00;46635.00;5071614;28;20515;-72
2022/08/26 05:08:47;;;;;;;8.63;1.60;;;;;;;-145.18;100.00;46638.91;5070714;28;20028;-72
2022/08/26 05:11:13;;;;;;;12.50;2.10;;;;;;;-145.18;100.00;46638.91;5071068;28;20123;-73
2022/08/26 05:13:39;;;;;;;6.33;1.60;;;;;;;-145.18;100.00;46638.91;5070153;28;20036;-73
2022/08/26 05:16:08;;;;;;;9.93;1.93;;;;;;;-145.18;100.00;46635.00;5071102;28;20107;-73
2022/08/26 05:18:34;;;;;;;10.40;2.17;;;;;;;-145.18;100.00;46638.91;5070671;28;20029;-72
2022/08/26 05:21:01;;;;;;;10.17;2.33;;;;;;;-145.18;100.00;46636.94;5070886;28;20496;-71
2022/08/26 05:23:27;;;;;;;7.77;1.77;;;;;;;-145.18;100.00;46635.00;5083008;28;20032;-72
2022/08/26 05:25:54;;;;;;;9.93;1.90;;;;;;;-145.18;100.00;46640.88;5090945;28;20024;-72
2022/08/26 05:28:20;;;;;;;10.00;1.90;;;;;;;-145.18;100.00;46638.91;5090620;28;20103;-73
2022/08/26 05:30:47;;;;;;;5.93;1.80;;;;;;;-145.18;100.00;46638.91;5085066;28;20090;-72
2022/08/26 05:33:13;;;;;;;11.70;2.27;;;;;;;-145.18;100.00;46638.91;5067371;28;20024;-72
2022/08/26 05:35:39;;;;;;;6.00;1.43;;;;;;;-145.18;100.00;46642.81;5070355;28;20082;-72
2022/08/26 05:38:07;;;;;;;8.17;1.83;;;;;;;-145.18;100.00;46638.91;5070313;28;20033;-72
2022/08/26 05:40:36;;;;;;;13.67;2.73;;;;;;;-145.18;100.00;46642.81;5070716;28;20029;-72
2022/08/26 05:43:02;;;;;;;5.80;1.47;;;;;;;-145.18;100.00;46640.88;5052907;28;20028;-72
2022/08/26 05:45:27;;;;;;;11.20;1.80;;;;;;;-145.18;100.00;46638.91;5070426;28;20040;-72
2022/08/26 05:47:53;;;;;;;7.50;1.80;;;;;;;-145.18;100.00;46640.88;5070250;28;20035;-72
2022/08/26 05:50:24;;;;;;;13.30;2.30;;;;;;;-145.18;100.00;46638.91;5070995;28;20063;-72
2022/08/26 05:52:50;;;;;;;6.30;1.57;;;;;;;-145.18;100.00;46640.88;5070142;28;20036;-72
2022/08/26 05:55:16;;;;;;;9.40;1.93;;;;;;;-145.18;100.00;46642.81;5066289;28;20737;-72
2022/08/26 05:57:43;;;;;;;6.67;1.50;;;;;;;-145.18;100.00;46642.81;5087086;28;20415;-72
2022/08/26 06:00:10;;;;;;;11.57;2.00;;;;;;;-145.18;100.00;46640.88;5076238;28;20037;-72
2022/08/26 06:02:37;;;;;;;8.67;1.80;;;;;;;-145.18;100.00;46650.63;5069557;28;20109;-72
2022/08/26 06:05:03;;;;;;;6.37;1.40;;;;;;;-145.18;100.00;46650.63;5069762;28;20067;-73
2022/08/26 06:10:13;;;;;;;5.20;1.50;;;;;;;-145.18;100.00;46652.59;5069944;28;20051;-73
2022/08/26 06:12:38;;;;;;;9.00;1.57;;;;;;;-145.18;100.00;46654.53;5069129;28;20036;-71
2022/08/26 06:15:04;;;;;;;7.23;1.80;;;;;;;-145.18;100.00;46658.44;5049000;28;20093;-72
2022/08/26 06:17:30;;;;;;;10.00;2.00;;;;;;;-145.18;100.00;46654.53;5050635;28;20033;-72
2022/08/26 06:19:55;;;;;;;9.57;1.33;;;;;;;-145.18;100.00;46658.44;5069655;28;20365;-72
2022/08/26 06:27:49;;;;;;;7.73;1.63;;;;;;;-145.18;100.00;46660.41;5069859;28;20179;-71
2022/08/26 06:30:15;;;;;;;6.60;1.77;;;;;;;-145.18;100.00;46660.41;5069826;28;20045;-69
2022/08/26 06:32:40;;;;;;;6.13;1.17;;;;;;;-145.18;100.00;46660.41;5069793;28;20037;-69
2022/08/26 06:35:06;;;;;;;5.33;2.13;;;;;;;-145.18;100.00;46660.41;5070166;28;20064;-69
2022/08/26 06:37:31;;;;;;;7.10;2.00;;;;;;;-145.18;100.00;46660.41;5070013;28;20070;-69
2022/08/26 06:39:56;;;;;;;12.10;2.30;;;;;;;-145.18;100.00;46660.41;5069885;28;20029;-68
2022/08/26 06:42:22;;;;;;;8.83;1.97;;;;;;;-145.18;100.00;46660.41;5069773;28;20028;-68
2022/08/26 06:44:47;;;;;;;10.17;1.73;;;;;;;-145.18;100.00;46660.41;5069665;28;20032;-69
2022/08/26 06:47:13;;;;;;;11.87;1.90;;;;;;;-145.18;100.00;46660.41;5069611;28;20043;-69
2022/08/26 06:49:38;;;;;;;5.43;1.67;;;;;;;-145.18;100.00;46660.41;5069310;28;20039;-69
2022/08/26 06:52:03;;;;;;;9.30;1.73;;;;;;;-145.18;100.00;46660.41;5069558;28;20025;-68
2022/08/26 06:54:30;;;;;;;6.93;1.50;;;;;;;-145.18;100.00;46660.41;5069394;28;20028;-68
2022/08/26 06:56:56;;;;;;;8.57;1.57;;;;;;;-145.18;100.00;46660.41;5069510;28;20041;-75
2022/08/26 06:59:21;;;;;;;6.20;1.80;;;;;;;-145.18;100.00;46627.19;5068947;28;20043;-74
2022/08/26 07:01:47;;;;;;;12.67;2.83;;;;;;;-145.18;100.00;46629.13;5069411;28;20044;-73
2022/08/26 07:04:15;;;;;;;6.87;1.30;;;;;;;-145.18;100.00;46660.41;5069005;28;20048;-73
2022/08/26 07:06:47;;;;;;;6.87;1.50;;;;;;;-145.18;100.00;46629.13;5069254;28;20067;-74
2022/08/26 07:09:13;;;;;;;7.63;1.80;;;;;;;-145.18;100.00;46631.09;5069285;28;20448;-72
2022/08/26 07:11:38;;;;;;;10.07;1.47;;;;;;;-145.18;100.00;46629.13;5068989;28;20071;-73
2022/08/26 07:14:04;;;;;;;12.70;1.67;;;;;;;-145.18;100.00;46660.41;5068747;28;20033;-75
2022/08/26 07:16:30;;;;;;;10.80;1.93;;;;;;;-145.18;100.00;46631.09;5069669;28;20074;-75
2022/08/26 07:18:56;;;;;;;8.67;1.80;;;;;;;-145.18;100.00;46633.06;5069224;28;20544;-73
2022/08/26 07:21:23;;;;;;;9.77;2.27;;;;;;;-145.18;100.00;46636.94;5068592;28;20577;-73
2022/08/26 07:23:48;;;;;;;7.97;1.60;;;;;;;-145.18;100.00;46660.41;5068795;28;20033;-73
2022/08/26 07:26:18;;;;;;;11.77;1.83;;;;;;;-145.18;100.00;46660.41;5069376;28;20404;-74
2022/08/26 07:28:45;;;;;;;9.47;1.60;;;;;;;-145.18;100.00;46660.41;5068592;28;20473;-74
2022/08/26 07:31:12;;;;;;;9.07;1.93;;;;;;;-145.18;100.00;46660.41;5069206;28;20033;-72
2022/08/26 07:33:39;;;;;;;8.20;2.33;;;;;;;-145.18;100.00;46660.41;5068188;28;20028;-73
2022/08/26 07:36:06;;;;;;;7.50;1.50;;;;;;;-145.18;100.00;46660.41;5069529;28;20086;-71
2022/08/26 07:38:32;;;;;;;8.70;1.70;;;;;;;-145.18;100.00;46660.41;5068906;28;20488;-75
2022/08/26 07:40:57;;;;;;;9.30;2.17;;;;;;;-145.18;100.00;46660.41;5068952;28;20044;-73
2022/08/26 07:43:23;;;;;;;12.33;2.00;;;;;;;-145.18;100.00;46660.41;5068769;28;20037;-72
2022/08/26 07:45:49;;;;;;;9.27;1.67;;;;;;;-145.18;100.00;46660.41;5069100;28;20518;-72
2022/08/26 07:48:15;;;;;;;10.70;1.97;;;;;;;-145.18;100.00;46660.41;5050939;28;20089;-72
2022/08/26 07:50:41;;;;;;;8.70;1.50;;;;;;;-145.18;100.00;46631.09;5068448;28;20040;-72
2022/08/26 07:53:07;;;;;;;10.13;1.60;;;;;;;-145.18;100.00;46633.06;5068464;28;20033;-72
2022/08/26 07:55:33;;;;;;;10.27;1.57;;;;;;;-145.18;100.00;46635.00;5068974;28;20056;-73
2022/08/26 07:57:58;;;;;;;11.73;1.60;;;;;;;-145.18;100.00;46635.00;5069658;28;20102;-72
2022/08/26 08:00:24;;;;;;;6.97;1.47;;;;;;;-145.18;100.00;46631.09;5072039;28;20028;-73
2022/08/26 08:02:50;;;;;;;11.73;1.60;;;;;;;-145.18;100.00;46631.09;5071612;28;20120;-72
2022/08/26 08:05:18;;;;;;;8.93;2.00;;;;;;;-145.18;100.00;46633.06;5072366;28;20412;-72
2022/08/26 08:07:43;;;;;;;12.37;1.40;;;;;;;-145.18;100.00;46636.94;5071338;28;20488;-72
2022/08/26 08:10:12;;;;;;;6.93;1.80;;;;;;;-145.18;100.00;46633.06;5082220;28;20042;-72
2022/08/26 08:12:39;;;;;;;13.30;1.50;;;;;;;-145.18;100.00;46635.00;5071975;28;20048;-72
2022/08/26 08:15:06;;;;;;;9.17;1.60;;;;;;;-145.18;100.00;46633.06;5071478;28;20040;-74
2022/08/26 08:17:33;;;;;;;7.73;1.50;;;;;;;-145.18;100.00;46633.06;5072169;28;20472;-73
2022/08/26 08:19:58;;;;;;;6.13;1.17;;;;;;;-145.18;100.00;46640.88;5071766;28;20033;-73
2022/08/26 08:22:24;;;;;;;11.43;3.10;;;;;;;-145.18;100.00;46636.94;5072344;28;20101;-72
2022/08/26 08:24:49;;;;;;;5.80;1.10;;;;;;;-145.18;100.00;46635.00;5070228;28;20369;-75
2022/08/26 08:27:15;;;;;;;10.00;1.53;;;;;;;-145.18;100.00;46640.88;5069030;28;20036;-75
2022/08/26 08:29:40;;;;;;;6.40;1.20;;;;;;;-145.18;100.00;46644.78;5069728;28;20108;-72
2022/08/26 08:32:06;;;;;;;8.53;1.53;;;;;;;-145.18;100.00;46644.78;5070904;28;20373;-73
2022/08/26 08:34:31;;;;;;;6.27;1.37;;;;;;;-145.18;100.00;46642.81;5072278;28;20020;-73
2022/08/26 08:36:57;;;;;;;7.70;1.30;;;;;;;-145.18;100.00;46640.88;5070627;28;20357;-75
2022/08/26 08:39:22;;;;;;;9.47;1.33;;;;;;;-145.18;100.00;46642.81;5070213;28;20036;-73
2022/08/26 08:42:03;;;;;;;4.40;1.37;;;;;;;-145.18;100.00;46640.88;5071008;28;20082;-72
2022/08/26 08:44:28;;;;;;;5.77;1.20;;;;;;;-145.18;100.00;46644.78;5057958;28;20032;-73
2022/08/26 08:46:59;;;;;;;10.67;2.60;;;;;;;-145.18;100.00;46640.88;5071078;28;20126;-72
2022/08/26 08:49:27;;;;;;;5.00;1.40;;;;;;;-145.18;100.00;46644.78;5071287;28;20115;-72
2022/08/26 08:51:55;;;;;;;5.77;1.40;;;;;;;-145.18;100.00;46640.88;5070581;28;20056;-72
2022/08/26 08:54:21;;;;;;;4.87;1.30;;;;;;;-145.18;100.00;46644.78;5071106;28;20482;-75
2022/08/26 08:56:58;;;;;;;7.07;1.30;;;;;;;-145.18;100.00;46642.81;5071021;28;20032;-73
2022/08/26 08:59:34;;;;;;;5.50;1.57;;;;;;;-145.18;100.00;46640.88;5070709;28;20027;-72
2022/08/26 09:02:24;;;;;;;9.90;1.93;;;;;;;-145.18;100.00;46633.06;5070545;28;20024;-73
2022/08/26 09:05:09;;;;;;;6.67;1.23;;;;;;;-145.18;100.00;46638.91;5070552;28;20049;-73
2022/08/26 09:07:43;;;;;;;6.33;1.20;;;;;;;-145.18;100.00;46631.09;5071244;28;20396;-73
2022/08/26 09:10:29;;;;;;;7.23;1.20;;;;;;;-145.18;100.00;46636.94;5070245;28;20111;-73
2022/08/26 09:12:56;;;;;;;4.73;1.33;;;;;;;-145.18;100.00;46636.94;5070499;28;20029;-74
2022/08/26 09:15:35;;;;;;;5.43;1.30;;;;;;;-145.18;100.00;46636.94;5071260;28;20078;-73
2022/08/26 09:18:25;;;;;;;10.23;1.73;;;;;;;-145.18;100.00;46640.88;5072996;28;20264;-73
2022/08/26 09:21:08;;;;;;;7.40;1.50;;;;;;;-145.18;100.00;46638.91;5070510;28;20036;-73
2022/08/26 09:23:36;;;;;;;10.70;1.40;;;;;;;-145.18;100.00;46642.81;5069860;28;20032;-73
2022/08/26 09:26:16;;;;;;;12.90;1.80;;;;;;;-145.18;100.00;46640.88;5070081;28;20045;-73
2022/08/26 09:28:46;;;;;;;5.13;1.33;;;;;;;-145.18;100.00;46646.72;5069936;28;20021;-73
2022/08/26 09:31:21;;;;;;;10.37;1.60;;;;;;;-145.18;100.00;46642.81;5069285;28;20123;-73
2022/08/26 09:33:46;;;;;;;6.18;1.73;;;;;;;-145.18;100.00;46644.78;5070485;28;20045;-75
2022/08/26 09:36:15;;;;;;;2.77;1.20;;;;;;;-145.18;100.00;46642.81;5070583;28;20040;-72
2022/08/26 09:38:41;;;;;;;7.13;2.40;;;;;;;-145.18;100.00;46644.78;5070023;28;20400;-72
2022/08/26 09:41:23;;;;;;;5.60;1.63;;;;;;;-145.18;100.00;46648.69;5070470;28;20031;-72
2022/08/26 09:44:09;;;;;;;8.67;1.30;;;;;;;-145.18;100.00;46648.69;5070192;28;20401;-75
2022/08/26 09:46:35;;;;;;;;;;;;;;;-145.18;100.00;46646.72;5070836;28;20048;-74
2022/08/26 09:49:22;;;;;;;11.70;1.45;;;;;;;-145.18;100.00;46648.69;5069799;28;19912;-74
2022/08/26 09:51:47;;;;;;;9.83;1.60;;;;;;;-145.18;100.00;46644.78;5067665;28;20056;-75
2022/08/26 09:54:25;;;;;;;6.53;1.40;;;;;;;-145.18;100.00;46642.81;5069974;28;20116;-75
2022/08/26 09:56:51;;;;;;;7.20;1.27;;;;;;;-145.18;100.00;46642.81;5069639;28;20388;-74
2022/08/26 09:59:28;;;;;;;6.77;1.80;;;;;;;-145.18;100.00;46644.78;5068913;28;20054;-74
2022/08/26 10:01:54;;;;;;;17.47;1.73;;;;;;;-145.18;100.00;46644.78;5069011;28;20063;-74
2022/08/26 10:04:23;;;;;;;6.17;1.20;;;;;;;-145.18;100.00;46640.88;5069145;28;20159;-74
2022/08/26 10:07:03;;;;;;;8.03;1.93;;;;;;;-145.18;100.00;46646.72;5069969;28;20043;-74
2022/08/26 10:09:34;;;;;;;4.90;1.63;;;;;;;-145.18;100.00;46644.78;5069719;28;20032;-74
2022/08/26 10:12:10;;;;;;;6.17;1.30;;;;;;;-145.18;100.00;46650.63;5052120;28;20035;-75
2022/08/26 10:14:41;;;;;;;5.80;1.10;;;;;;;-145.18;100.00;46644.78;5051557;28;20392;-74
2022/08/26 10:17:15;;;;;;;10.03;1.47;;;;;;;-145.18;100.00;46648.69;5070075;28;20035;-74
2022/08/26 10:19:47;;;;;;;9.63;1.07;;;;;;;-145.18;100.00;46652.59;5069506;28;20039;-74
2022/08/26 10:22:19;;;;;;;5.60;1.03;;;;;;;-145.18;100.00;46652.59;5069445;28;20028;-74
2022/08/26 10:24:53;;;;;;;7.10;0.93;;;;;;;-145.18;100.00;46652.59;5069413;28;20032;-74
2022/08/26 10:27:38;;;;;;;9.63;1.23;;;;;;;-145.18;100.00;46650.63;5069692;28;20024;-74
2022/08/26 10:30:11;;;;;;;7.40;1.52;;;;;;;-145.18;100.00;46656.50;5068695;28;20439;-74
2022/08/26 10:32:40;;;;;;;7.53;1.30;;;;;;;-145.18;100.00;46652.59;5069599;28;20028;-75
2022/08/26 10:35:09;;;;;;;5.83;0.90;;;;;;;-145.18;100.00;46656.50;5068880;28;20082;-72
2022/08/26 10:37:38;;;;;;;4.67;1.10;;;;;;;-145.18;100.00;46654.53;5069455;28;20029;-74
2022/08/26 10:40:06;;;;;;;4.53;1.03;;;;;;;-145.18;100.00;46656.50;5069309;28;20105;-72
2022/08/26 10:42:45;;;;;;;3.33;0.83;;;;;;;-145.18;100.00;46664.31;5069339;28;20032;-74
2022/08/26 10:45:20;;;;;;;6.40;1.10;;;;;;;-145.18;100.00;46666.25;5069227;28;20028;-74
2022/08/26 10:47:57;;;;;;;3.97;0.90;;;;;;;-145.18;100.00;46668.22;5068675;28;20025;-72
2022/08/26 10:50:29;;;;;;;8.13;1.30;;;;;;;-145.18;100.00;46668.22;5068865;28;20508;-74
2022/08/26 10:53:33;;;;;;;3.40;0.90;;;;;;;-145.18;100.00;46668.22;5069296;28;20115;-74
2022/08/26 10:56:04;;;;;;;4.27;1.20;;;;;;;-145.18;100.00;46668.22;5069012;28;20403;-72
2022/08/26 10:58:52;;;;;;;8.50;1.10;;;;;;;-145.18;100.00;46666.25;5068462;28;20099;-72
2022/08/26 11:01:41;;;;;;;5.13;1.10;;;;;;;-145.18;100.00;46668.22;5068075;28;20041;-72
2022/08/26 11:04:20;;;;;;;4.23;1.57;;;;;;;-145.18;100.00;46660.41;5068682;28;20052;-72
2022/08/26 11:06:46;;;;;;;5.27;1.20;;;;;;;-145.18;100.00;46664.31;5068957;28;20124;-72
2022/08/26 11:09:45;;;;;;;7.93;2.13;;;;;;;-145.18;100.00;46666.25;5068951;28;20029;-72
2022/08/26 11:12:35;;;;;;;5.83;1.30;;;;;;;-145.18;100.00;46662.34;5069045;28;20068;-72
2022/08/26 11:15:24;;;;;;;4.90;1.50;;;;;;;-145.18;100.00;46664.31;5050729;28;20038;-72
2022/08/26 11:17:50;;;;;;;8.40;1.40;;;;;;;-145.18;100.00;46664.31;5069305;28;20024;-72
2022/08/26 11:20:21;;;;;;;3.70;1.40;;;;;;;-145.18;100.00;46662.34;5068220;28;20020;-74
2022/08/26 11:22:50;;;;;;;5.43;1.30;;;;;;;-145.18;100.00;46660.41;5068591;28;20036;-72
2022/08/26 11:25:17;;;;;;;4.93;1.17;;;;;;;-145.18;100.00;46662.34;5067900;28;20033;-72